Time;durP1;ratioP1;P1;durP2;ratioP2;P2;SDS_P1;SDS_P2;PMS_P1;PMS_P2;Temp;Humidity;BMP_temperature;BMP_pressure;BME280_temperature;BME280_humidity;BME280_pressure;Samples;Min_cycle;Max_cycle;Signal;HPM_P1;HPM_P2
2022/11/10 00:01:44;;;;;;;5.47;2.80;;;20.70;99.90;;;;;;4181090;28;20216;-70
2022/11/10 00:03:49;;;;;;;6.97;2.72;;;20.70;99.90;;;;;;4183410;28;20273;-70
2022/11/10 00:05:51;;;;;;;5.53;2.95;;;20.70;99.90;;;;;;4177092;28;20254;-70
2022/11/10 00:07:53;;;;;;;5.90;2.75;;;20.80;99.90;;;;;;4179295;28;20267;-70
2022/11/10 00:09:55;;;;;;;6.35;2.90;;;20.70;99.90;;;;;;4175991;28;20215;-70
2022/11/10 00:11:58;;;;;;;5.68;2.60;;;20.70;99.90;;;;;;4188070;28;20223;-70
2022/11/10 00:18:40;;;;;;;4.15;2.53;;;20.70;99.90;;;;;;4178336;28;20203;-71
2022/11/10 00:20:43;;;;;;;6.65;2.90;;;20.70;99.90;;;;;;4174014;28;20617;-70
2022/11/10 00:22:45;;;;;;;7.60;3.03;;;20.70;99.90;;;;;;4191978;28;20664;-71
2022/11/10 00:24:47;;;;;;;5.80;2.80;;;20.60;99.90;;;;;;4177388;28;20211;-71
2022/11/10 00:26:50;;;;;;;7.65;3.03;;;20.60;99.90;;;;;;4179441;28;20215;-79
2022/11/10 00:28:54;;;;;;;5.57;2.83;;;20.70;99.90;;;;;;4188562;28;20216;-79
2022/11/10 00:30:56;;;;;;;4.38;2.95;;;20.70;99.90;;;;;;4176561;28;20283;-79
2022/11/10 00:32:59;;;;;;;4.85;2.97;;;20.70;99.90;;;;;;4180684;28;20260;-78
2022/11/10 00:35:02;;;;;;;4.78;2.65;;;20.70;99.90;;;;;;4189949;28;20265;-79
2022/11/10 00:37:04;;;;;;;5.97;3.17;;;20.60;99.90;;;;;;4181013;28;20347;-78
2022/11/10 00:39:07;;;;;;;7.07;2.95;;;20.70;99.90;;;;;;4190653;28;20223;-77
2022/11/10 00:41:09;;;;;;;7.68;2.60;;;20.60;99.90;;;;;;4180533;28;20215;-69
2022/11/10 00:43:12;;;;;;;6.88;3.03;;;20.60;99.90;;;;;;4178314;28;20222;-69
2022/11/10 00:45:14;;;;;;;6.20;3.08;;;20.60;99.90;;;;;;4188197;28;20226;-70
2022/11/10 00:47:17;;;;;;;5.85;2.95;;;20.60;99.90;;;;;;4177316;28;20220;-70
2022/11/10 00:49:19;;;;;;;4.93;2.85;;;20.60;99.90;;;;;;4173716;28;20215;-70
2022/11/10 00:51:25;;;;;;;3.90;2.35;;;20.60;99.90;;;;;;4182399;28;20280;-69
2022/11/10 00:53:27;;;;;;;4.50;2.50;;;20.60;99.90;;;;;;4179343;28;20212;-69
2022/11/10 00:55:29;;;;;;;5.43;2.67;;;20.60;99.90;;;;;;4182889;28;20257;-70
2022/11/10 00:57:32;;;;;;;6.18;2.90;;;20.60;99.90;;;;;;4179814;28;20290;-69
2022/11/10 00:59:34;;;;;;;4.30;2.63;;;20.60;99.90;;;;;;4180984;28;20223;-69
2022/11/10 01:01:36;;;;;;;7.05;2.50;;;20.60;99.90;;;;;;4182146;28;20272;-70
2022/11/10 01:03:39;;;;;;;6.97;2.78;;;20.60;99.90;;;;;;4181597;28;20241;-69
2022/11/10 01:05:42;;;;;;;5.60;2.40;;;20.60;99.90;;;;;;4173279;28;20636;-70
2022/11/10 01:07:45;;;;;;;5.80;2.72;;;20.60;99.90;;;;;;4185576;28;20248;-70
2022/11/10 01:09:48;;;;;;;5.07;2.55;;;20.60;99.90;;;;;;4187166;28;20265;-70
2022/11/10 01:11:50;;;;;;;7.18;2.60;;;20.60;99.90;;;;;;4181721;28;20280;-70
2022/11/10 01:13:54;;;;;;;5.93;2.70;;;20.60;99.90;;;;;;4182712;28;20219;-69
2022/11/10 01:15:56;;;;;;;5.70;2.65;;;20.50;99.90;;;;;;4186178;28;20980;-70
2022/11/10 01:17:58;;;;;;;5.75;3.10;;;20.60;99.90;;;;;;4170028;28;20239;-70
2022/11/10 01:20:01;;;;;;;6.25;3.05;;;20.60;99.90;;;;;;4181045;28;20220;-78
2022/11/10 01:22:03;;;;;;;7.88;3.10;;;20.50;99.90;;;;;;4175282;28;20645;-78
2022/11/10 01:24:07;;;;;;;5.80;2.78;;;20.50;99.90;;;;;;4173641;28;20245;-78
2022/11/10 01:26:10;;;;;;;5.35;2.58;;;20.60;99.90;;;;;;4186037;28;20219;-78
2022/11/10 01:28:12;;;;;;;4.93;2.53;;;20.50;99.90;;;;;;4176814;28;20281;-78
2022/11/10 01:30:14;;;;;;;4.80;2.53;;;20.50;99.90;;;;;;4175975;28;20601;-78
2022/11/10 01:32:17;;;;;;;4.85;2.50;;;20.50;99.90;;;;;;4190738;28;20223;-78
2022/11/10 01:34:19;;;;;;;4.60;2.90;;;20.60;99.90;;;;;;4177535;28;20219;-78
2022/11/10 01:36:21;;;;;;;6.10;2.97;;;20.50;99.90;;;;;;4178868;28;20683;-78
2022/11/10 01:38:27;;;;;;;4.85;2.53;;;20.50;99.90;;;;;;4180870;28;20698;-78
2022/11/10 01:40:30;;;;;;;4.32;2.60;;;20.50;99.90;;;;;;4183588;28;20219;-78
2022/11/10 01:42:44;;;;;;;4.20;2.53;;;20.50;99.90;;;;;;4190621;28;20721;-78
2022/11/10 01:45:30;;;;;;;5.75;3.05;;;20.60;99.90;;;;;;4183835;28;20219;-78
2022/11/10 01:47:33;;;;;;;5.50;2.70;;;20.50;99.90;;;;;;4190679;28;20709;-70
2022/11/10 01:49:36;;;;;;;6.00;2.35;;;20.50;99.90;;;;;;4180457;28;20291;-70
2022/11/10 01:51:42;;;;;;;5.38;2.90;;;20.50;99.90;;;;;;4185292;28;20227;-70
2022/11/10 01:53:48;;;;;;;4.88;2.50;;;20.50;99.90;;;;;;4184265;28;20308;-70
2022/11/10 01:55:54;;;;;;;6.68;2.80;;;20.40;99.90;;;;;;4179881;28;20293;-69
2022/11/10 01:57:57;;;;;;;6.50;2.65;;;20.40;99.90;;;;;;4166965;28;20240;-70
2022/11/10 01:59:59;;;;;;;6.72;2.75;;;20.40;99.90;;;;;;4167500;28;20268;-70
2022/11/10 02:02:11;;;;;;;6.93;2.85;;;20.40;99.90;;;;;;4166460;28;20648;-70
2022/11/10 02:04:16;;;;;;;5.85;2.78;;;20.50;99.90;;;;;;4159551;28;20220;-70
2022/11/10 02:06:22;;;;;;;6.85;2.25;;;20.40;99.90;;;;;;4163980;28;20220;-70
2022/11/10 02:08:26;;;;;;;6.72;2.42;;;20.40;99.90;;;;;;4158803;28;20224;-70
2022/11/10 02:10:29;;;;;;;5.18;2.45;;;20.40;99.90;;;;;;4162451;28;20347;-70
2022/11/10 02:12:39;;;;;;;4.10;2.40;;;20.50;99.90;;;;;;4161725;28;20224;-70
2022/11/10 02:14:41;;;;;;;6.43;2.70;;;20.40;99.90;;;;;;4164423;28;20266;-70
2022/11/10 02:16:44;;;;;;;7.50;2.90;;;20.40;99.90;;;;;;4160124;28;20318;-70
2022/11/10 02:18:49;;;;;;;5.25;2.67;;;20.40;99.90;;;;;;4164606;28;20286;-70
2022/11/10 02:20:53;;;;;;;5.93;2.88;;;20.30;99.90;;;;;;4162803;28;20355;-70
2022/11/10 02:22:55;;;;;;;4.70;2.38;;;20.40;99.90;;;;;;4162339;28;20267;-70
2022/11/10 02:24:58;;;;;;;5.18;2.50;;;20.40;99.90;;;;;;4167186;28;20621;-70
2022/11/10 02:27:00;;;;;;;4.38;2.45;;;20.40;99.90;;;;;;4162433;28;20247;-70
2022/11/10 02:29:03;;;;;;;4.07;2.33;;;20.40;99.90;;;;;;4164934;28;20208;-70
2022/11/10 02:31:06;;;;;;;6.40;2.47;;;20.40;99.90;;;;;;4165992;28;20265;-70
2022/11/10 02:33:08;;;;;;;5.50;2.45;;;20.30;99.90;;;;;;4158247;28;20224;-70
2022/11/10 02:35:11;;;;;;;5.03;2.38;;;20.30;99.90;;;;;;4161114;28;20217;-70
2022/11/10 02:37:14;;;;;;;3.90;2.17;;;20.30;99.90;;;;;;4160468;28;20370;-70
2022/11/10 02:39:17;;;;;;;6.80;2.80;;;20.40;99.90;;;;;;4168571;28;20757;-70
2022/11/10 02:41:19;;;;;;;4.78;2.40;;;20.40;99.90;;;;;;4168053;28;20278;-71
2022/11/10 02:43:21;;;;;;;3.97;2.00;;;20.30;99.90;;;;;;4167989;28;20298;-69
2022/11/10 02:45:23;;;;;;;6.53;2.63;;;20.40;99.90;;;;;;4171946;28;20620;-69
2022/11/10 02:47:26;;;;;;;4.78;2.67;;;20.30;99.90;;;;;;4174536;28;20664;-69
2022/11/10 02:49:28;;;;;;;5.38;2.42;;;20.30;99.90;;;;;;4162327;28;20221;-69
2022/11/10 02:51:30;;;;;;;5.28;3.05;;;20.30;99.90;;;;;;4165318;28;20259;-77
2022/11/10 02:53:34;;;;;;;4.75;2.50;;;20.30;99.90;;;;;;4169642;28;20278;-78
2022/11/10 02:55:37;;;;;;;6.53;2.40;;;20.30;99.90;;;;;;4159882;28;20251;-77
2022/11/10 02:57:39;;;;;;;4.93;2.30;;;20.30;99.90;;;;;;4169741;28;20285;-77
2022/11/10 02:59:41;;;;;;;7.10;3.17;;;20.30;99.90;;;;;;4176900;28;20285;-77
2022/11/10 03:01:43;;;;;;;4.45;2.35;;;20.30;99.90;;;;;;4175360;28;20665;-78
2022/11/10 03:03:45;;;;;;;6.90;2.65;;;20.30;99.90;;;;;;4176323;28;20632;-78
2022/11/10 03:05:48;;;;;;;5.68;2.55;;;20.30;99.90;;;;;;4175874;28;20224;-78
2022/11/10 03:07:53;;;;;;;3.90;2.08;;;20.30;99.90;;;;;;4174695;28;20973;-78
2022/11/10 03:09:57;;;;;;;5.15;2.42;;;20.30;99.90;;;;;;4177396;28;20269;-78
2022/11/10 03:12:00;;;;;;;5.38;2.35;;;20.30;99.90;;;;;;4176987;28;20220;-79
2022/11/10 03:14:02;;;;;;;5.25;2.47;;;20.20;99.90;;;;;;4175547;28;20242;-78
2022/11/10 03:16:05;;;;;;;5.90;2.70;;;20.20;99.90;;;;;;4174990;28;20227;-79
2022/11/10 03:18:08;;;;;;;5.70;2.55;;;20.30;99.90;;;;;;4175919;28;20216;-79
2022/11/10 03:20:11;;;;;;;5.95;2.72;;;20.20;99.90;;;;;;4181135;28;20223;-78
2022/11/10 03:22:13;;;;;;;4.35;2.28;;;20.30;99.90;;;;;;4178319;28;20302;-78
2022/11/10 03:24:15;;;;;;;5.13;2.45;;;20.20;99.90;;;;;;4178050;28;20964;-78
2022/11/10 03:26:19;;;;;;;6.68;2.83;;;20.30;99.90;;;;;;4191068;28;20280;-78
2022/11/10 03:28:21;;;;;;;5.80;2.30;;;20.30;99.90;;;;;;4177376;28;20318;-71
2022/11/10 03:30:24;;;;;;;6.00;2.45;;;20.20;99.90;;;;;;4187566;28;20280;-71
2022/11/10 03:32:26;;;;;;;3.88;2.20;;;20.20;99.90;;;;;;4175753;28;20279;-78
2022/11/10 03:34:28;;;;;;;6.00;2.50;;;20.20;99.90;;;;;;4177025;28;20270;-78
2022/11/10 03:36:30;;;;;;;5.50;2.35;;;20.20;99.90;;;;;;4177900;28;20215;-78
2022/11/10 03:38:33;;;;;;;4.30;2.50;;;20.20;99.90;;;;;;4177273;28;20571;-79
2022/11/10 03:40:35;;;;;;;4.32;2.25;;;20.20;99.90;;;;;;4181379;28;20274;-78
2022/11/10 03:42:41;;;;;;;6.15;2.28;;;20.20;99.90;;;;;;4181759;28;20273;-78
2022/11/10 03:44:44;;;;;;;6.40;2.28;;;20.20;99.90;;;;;;4185893;28;20220;-78
2022/11/10 03:46:46;;;;;;;5.40;2.40;;;20.20;99.90;;;;;;4178382;28;20211;-78
2022/11/10 03:48:48;;;;;;;6.10;2.63;;;20.20;99.90;;;;;;4173110;28;20610;-78
2022/11/10 03:50:51;;;;;;;5.50;2.55;;;20.20;99.90;;;;;;4176168;28;20656;-79
2022/11/10 03:52:53;;;;;;;4.80;2.35;;;20.20;99.90;;;;;;4180711;28;20315;-78
2022/11/10 03:54:55;;;;;;;5.97;2.45;;;20.20;99.90;;;;;;4176506;28;20672;-78
2022/11/10 03:56:57;;;;;;;4.70;2.28;;;20.10;99.90;;;;;;4178426;28;20289;-78
2022/11/10 03:59:01;;;;;;;5.25;2.35;;;20.20;99.90;;;;;;4178027;28;20271;-78
2022/11/10 04:01:04;;;;;;;4.88;2.22;;;20.20;99.90;;;;;;4178556;28;20251;-78
2022/11/10 04:03:06;;;;;;;5.65;2.58;;;20.20;99.90;;;;;;4179779;28;20219;-79
2022/11/10 04:09:49;;;;;;;6.43;2.28;;;20.10;99.90;;;;;;4185160;28;20188;-79
2022/11/10 04:16:32;;;;;;;5.75;2.40;;;20.10;99.90;;;;;;4178371;28;20195;-79
2022/11/10 04:18:35;;;;;;;4.78;2.20;;;20.20;99.90;;;;;;4180630;28;20344;-78
2022/11/10 04:20:37;;;;;;;6.32;2.58;;;20.10;99.90;;;;;;4177489;28;20707;-78
2022/11/10 04:25:01;;;;;;;5.88;2.45;;;20.10;99.90;;;;;;4148660;28;20359;-78
2022/11/10 04:27:03;;;;;;;7.88;2.58;;;20.10;99.90;;;;;;4175141;28;20278;-78
2022/11/10 04:29:07;;;;;;;5.93;2.50;;;20.10;99.90;;;;;;4173795;28;20669;-78
2022/11/10 04:31:11;;;;;;;5.53;2.47;;;20.10;99.90;;;;;;4176434;28;20674;-79
2022/11/10 04:33:13;;;;;;;5.80;2.47;;;20.10;99.90;;;;;;4175536;28;20254;-78
2022/11/10 04:35:16;;;;;;;4.28;2.05;;;20.00;99.90;;;;;;4177319;28;20232;-78
2022/11/10 04:37:18;;;;;;;6.38;2.35;;;20.00;99.90;;;;;;4178237;28;20211;-78
2022/11/10 04:39:20;;;;;;;5.93;2.60;;;20.00;99.90;;;;;;4174227;28;20281;-78
2022/11/10 04:41:27;;;;;;;5.55;2.30;;;20.10;99.90;;;;;;4177584;28;21132;-79
2022/11/10 04:43:29;;;;;;;5.07;2.58;;;20.00;99.90;;;;;;4183219;28;20219;-78
2022/11/10 04:45:33;;;;;;;6.82;2.58;;;20.00;99.90;;;;;;4179985;28;20289;-78
2022/11/10 04:47:36;;;;;;;3.95;2.38;;;20.00;99.90;;;;;;4175639;28;20265;-78
2022/11/10 04:49:39;;;;;;;2.88;1.88;;;20.00;99.90;;;;;;4177235;28;20219;-79
2022/11/10 04:51:41;;;;;;;6.30;2.47;;;20.00;99.90;;;;;;4173717;28;20266;-78
2022/11/10 04:53:43;;;;;;;4.22;2.00;;;20.00;99.90;;;;;;4179402;28;20226;-78
2022/11/10 04:55:46;;;;;;;5.50;1.92;;;20.00;99.90;;;;;;4181157;28;20270;-79
2022/11/10 04:57:49;;;;;;;5.28;2.22;;;20.00;99.90;;;;;;4164057;28;20287;-78
2022/11/10 04:59:51;;;;;;;4.10;2.10;;;20.00;99.90;;;;;;4158490;28;20295;-78
2022/11/10 05:01:54;;;;;;;4.50;2.22;;;20.00;99.90;;;;;;4158156;28;20259;-79
2022/11/10 05:03:58;;;;;;;6.43;2.40;;;20.00;99.90;;;;;;4159258;28;20221;-79
2022/11/10 05:06:00;;;;;;;4.72;2.10;;;20.00;99.90;;;;;;4158926;28;20223;-79
2022/11/10 05:08:03;;;;;;;4.20;2.20;;;20.00;99.90;;;;;;4156949;28;20251;-78
2022/11/10 05:10:06;;;;;;;6.25;2.10;;;20.00;99.90;;;;;;4157765;28;20228;-78
2022/11/10 05:12:09;;;;;;;5.40;2.30;;;19.90;99.90;;;;;;4159343;28;20344;-79
2022/11/10 05:14:11;;;;;;;4.97;2.22;;;20.00;99.90;;;;;;4159301;28;20272;-78
2022/11/10 05:16:13;;;;;;;4.78;2.30;;;19.90;99.90;;;;;;4155088;28;20909;-78
2022/11/10 05:18:16;;;;;;;6.15;2.35;;;20.00;99.90;;;;;;4159054;28;20628;-78
2022/11/10 05:20:21;;;;;;;6.50;2.42;;;20.00;99.90;;;;;;4158843;28;20646;-79
2022/11/10 05:22:23;;;;;;;4.78;2.40;;;19.90;99.90;;;;;;4155260;28;20694;-79
2022/11/10 05:24:24;;;;;;;4.65;2.35;;;19.90;99.90;;;;;;4159535;28;20290;-78
2022/11/10 05:26:26;;;;;;;5.65;2.05;;;19.90;99.90;;;;;;4159201;28;20275;-78
2022/11/10 05:28:31;;;;;;;5.13;2.20;;;20.00;99.90;;;;;;4157146;28;20315;-78
2022/11/10 05:30:34;;;;;;;6.13;2.10;;;19.90;99.90;;;;;;4159145;28;20216;-79
2022/11/10 05:32:37;;;;;;;5.32;2.40;;;19.90;99.90;;;;;;4157437;28;20224;-78
2022/11/10 05:34:39;;;;;;;3.20;1.85;;;19.90;99.90;;;;;;4154664;28;20267;-78
2022/11/10 05:36:43;;;;;;;5.88;2.25;;;19.90;99.90;;;;;;4159209;28;20224;-78
2022/11/10 05:38:45;;;;;;;5.65;2.05;;;19.90;99.90;;;;;;4157799;28;20558;-79
2022/11/10 05:40:48;;;;;;;6.53;2.40;;;19.90;99.90;;;;;;4155939;28;21671;-78
2022/11/10 05:42:51;;;;;;;3.85;2.13;;;19.90;99.90;;;;;;4156437;28;20224;-79
2022/11/10 05:44:54;;;;;;;7.10;2.45;;;19.90;99.90;;;;;;4154943;28;20661;-78
2022/11/10 05:46:56;;;;;;;5.55;2.30;;;19.90;99.90;;;;;;4156080;28;20220;-76
2022/11/10 05:48:58;;;;;;;4.90;1.90;;;19.90;99.90;;;;;;4155402;28;20217;-76
2022/11/10 05:51:00;;;;;;;4.95;2.40;;;19.90;99.90;;;;;;4155083;28;20255;-76
2022/11/10 05:53:04;;;;;;;5.28;2.17;;;19.90;99.90;;;;;;4155893;28;20243;-76
2022/11/10 05:55:07;;;;;;;7.82;2.72;;;19.90;99.90;;;;;;4156026;28;20279;-76
2022/11/10 05:57:09;;;;;;;7.13;2.50;;;19.80;99.90;;;;;;4156692;28;20285;-76
2022/11/10 05:59:12;;;;;;;3.70;1.92;;;19.80;99.90;;;;;;4173180;28;20247;-77
2022/11/10 06:01:14;;;;;;;5.03;2.25;;;19.90;99.90;;;;;;4173124;28;20644;-78
2022/11/10 06:03:18;;;;;;;4.60;2.17;;;19.90;99.90;;;;;;4171320;28;20270;-78
2022/11/10 06:05:20;;;;;;;6.20;2.20;;;19.90;99.90;;;;;;4171962;28;20219;-78
2022/11/10 06:07:22;;;;;;;5.50;2.20;;;19.90;99.90;;;;;;4173077;28;20208;-77
2022/11/10 06:09:26;;;;;;;5.82;2.08;;;19.90;99.90;;;;;;4168925;28;20660;-77
2022/11/10 06:11:28;;;;;;;5.50;2.20;;;19.90;99.90;;;;;;4172786;28;20986;-77
2022/11/10 06:13:30;;;;;;;4.20;1.95;;;19.90;99.90;;;;;;4173434;28;20269;-77
2022/11/10 06:15:33;;;;;;;5.40;2.00;;;19.90;99.90;;;;;;4170935;28;21009;-77
2022/11/10 06:17:37;;;;;;;4.82;2.08;;;19.90;99.90;;;;;;4173435;28;20261;-77
2022/11/10 06:19:39;;;;;;;6.38;2.22;;;19.90;99.90;;;;;;4173416;28;20215;-77
2022/11/10 06:21:42;;;;;;;8.57;2.60;;;20.00;99.90;;;;;;4175312;28;20327;-78
2022/11/10 06:23:44;;;;;;;8.05;2.22;;;20.00;99.90;;;;;;4175592;28;20277;-77
2022/11/10 06:25:48;;;;;;;5.68;2.30;;;20.00;99.90;;;;;;4174133;28;20224;-78
2022/11/10 06:27:50;;;;;;;4.47;2.05;;;20.10;99.90;;;;;;4175436;28;20282;-78
2022/11/10 06:29:52;;;;;;;7.18;2.40;;;20.10;99.90;;;;;;4176570;28;20216;-78
2022/11/10 06:31:54;;;;;;;6.65;2.20;;;20.10;99.90;;;;;;4173278;28;20253;-77
2022/11/10 06:33:57;;;;;;;5.85;2.17;;;20.20;99.90;;;;;;4175907;28;20357;-78
2022/11/10 06:35:59;;;;;;;7.03;2.22;;;20.10;99.90;;;;;;4176249;28;20602;-79
2022/11/10 06:38:03;;;;;;;5.80;2.53;;;20.20;99.90;;;;;;4174148;28;20261;-78
2022/11/10 06:40:07;;;;;;;6.18;2.20;;;20.20;99.90;;;;;;4173960;28;21093;-78
2022/11/10 06:42:11;;;;;;;4.80;2.20;;;20.20;99.90;;;;;;4175063;28;20266;-78
2022/11/10 06:44:13;;;;;;;7.30;2.22;;;20.20;99.90;;;;;;4172597;28;20212;-78
2022/11/10 06:46:15;;;;;;;5.25;2.05;;;20.20;99.90;;;;;;4174879;28;20290;-78
2022/11/10 06:48:18;;;;;;;5.70;2.28;;;20.30;99.90;;;;;;4176516;28;20220;-78
2022/11/10 06:50:20;;;;;;;5.05;2.22;;;20.30;99.90;;;;;;4173961;28;20207;-78
2022/11/10 06:52:22;;;;;;;7.45;2.50;;;20.30;99.90;;;;;;4177024;28;20237;-78
2022/11/10 06:54:25;;;;;;;4.80;1.95;;;20.30;99.90;;;;;;4176678;28;20269;-78
2022/11/10 06:56:27;;;;;;;6.22;2.33;;;20.30;99.90;;;;;;4173966;28;20289;-78
2022/11/10 06:58:31;;;;;;;5.70;2.17;;;20.30;99.90;;;;;;4177328;28;20718;-78
2022/11/10 07:00:33;;;;;;;6.93;2.30;;;20.30;99.90;;;;;;4175225;28;20321;-78
2022/11/10 07:02:35;;;;;;;2.95;1.60;;;20.30;99.90;;;;;;4177470;28;20261;-77
2022/11/10 07:04:37;;;;;;;8.18;2.20;;;20.30;99.90;;;;;;4177816;28;20270;-78
2022/11/10 07:06:40;;;;;;;4.57;1.80;;;20.30;99.90;;;;;;4174533;28;20215;-78
2022/11/10 07:08:42;;;;;;;9.60;2.30;;;20.40;99.90;;;;;;4177744;28;20260;-77
2022/11/10 07:10:45;;;;;;;5.88;1.98;;;20.30;99.90;;;;;;4176518;28;20242;-77
2022/11/10 07:12:48;;;;;;;6.00;1.75;;;20.40;99.90;;;;;;4175567;28;20228;-77
2022/11/10 07:14:51;;;;;;;6.07;2.15;;;20.40;99.90;;;;;;4177066;28;20302;-77
2022/11/10 07:16:53;;;;;;;3.88;1.95;;;20.40;99.90;;;;;;4177212;28;20269;-77
2022/11/10 07:18:56;;;;;;;6.35;2.13;;;20.40;99.90;;;;;;4174838;28;20219;-78
2022/11/10 07:20:58;;;;;;;6.28;2.17;;;20.40;99.90;;;;;;4177560;28;20247;-78
2022/11/10 07:23:02;;;;;;;6.53;2.45;;;20.50;99.90;;;;;;4177283;28;20215;-78
2022/11/10 07:25:05;;;;;;;5.47;2.30;;;20.50;99.90;;;;;;4174866;28;20725;-77
2022/11/10 07:27:07;;;;;;;7.05;2.30;;;20.50;99.90;;;;;;4176203;28;20269;-78
2022/11/10 07:29:10;;;;;;;5.68;2.47;;;20.50;99.90;;;;;;4177068;28;20250;-77
2022/11/10 07:31:13;;;;;;;4.55;1.88;;;20.60;99.90;;;;;;4173933;28;20212;-78
2022/11/10 07:33:16;;;;;;;5.93;2.05;;;20.50;99.90;;;;;;4177116;28;20301;-77
2022/11/10 07:35:18;;;;;;;6.22;2.28;;;20.60;99.90;;;;;;4173544;28;20739;-77
2022/11/10 07:37:20;;;;;;;5.50;1.95;;;20.60;99.90;;;;;;4176426;28;20242;-77
2022/11/10 07:39:22;;;;;;;4.20;2.03;;;20.50;99.90;;;;;;4176835;28;20269;-77
2022/11/10 07:41:25;;;;;;;7.25;2.35;;;20.60;99.90;;;;;;4175740;28;20227;-77
2022/11/10 07:43:27;;;;;;;3.15;1.60;;;20.60;99.90;;;;;;4175011;28;20224;-77
2022/11/10 07:45:30;;;;;;;5.70;2.20;;;20.60;99.90;;;;;;4177383;28;20216;-77
2022/11/10 07:47:34;;;;;;;7.50;2.15;;;20.60;99.90;;;;;;4171935;28;20273;-78
2022/11/10 07:49:36;;;;;;;5.13;2.22;;;20.70;99.90;;;;;;4172386;28;20277;-78
2022/11/10 07:51:38;;;;;;;5.55;2.22;;;20.70;99.90;;;;;;4176363;28;20219;-77
2022/11/10 07:53:41;;;;;;;6.18;2.22;;;20.70;99.90;;;;;;4173706;28;20212;-78
2022/11/10 07:55:44;;;;;;;4.38;2.20;;;20.70;99.90;;;;;;4176719;28;20273;-77
2022/11/10 07:57:46;;;;;;;3.97;2.10;;;20.70;99.90;;;;;;4175393;28;20239;-76
2022/11/10 07:59:49;;;;;;;6.90;2.00;;;20.70;99.90;;;;;;4172496;28;20274;-77
2022/11/10 08:01:51;;;;;;;5.72;2.03;;;20.70;99.90;;;;;;4173702;28;20339;-77
2022/11/10 08:03:55;;;;;;;5.65;2.25;;;20.70;99.90;;;;;;4174483;28;20625;-76
2022/11/10 08:05:57;;;;;;;8.98;2.53;;;20.80;99.90;;;;;;4171530;28;20228;-76
2022/11/10 08:08:00;;;;;;;4.82;1.92;;;20.80;99.90;;;;;;4174120;28;20262;-78
2022/11/10 08:10:02;;;;;;;6.65;2.20;;;20.90;99.90;;;;;;4167383;28;20219;-77
2022/11/10 08:12:05;;;;;;;6.40;1.85;;;20.90;99.90;;;;;;4168655;28;20208;-77
2022/11/10 08:14:10;;;;;;;5.05;2.25;;;20.80;99.90;;;;;;4173194;28;20264;-77
2022/11/10 08:16:13;;;;;;;5.72;2.20;;;20.80;99.90;;;;;;4171781;28;20273;-77
2022/11/10 08:18:18;;;;;;;8.23;2.47;;;20.90;99.90;;;;;;4169910;28;20219;-76
2022/11/10 08:20:21;;;;;;;8.95;2.33;;;20.90;99.90;;;;;;4171007;28;21573;-77
2022/11/10 08:22:23;;;;;;;4.88;1.75;;;20.90;99.90;;;;;;4169218;28;20243;-75
2022/11/10 08:24:26;;;;;;;6.60;2.10;;;20.90;99.90;;;;;;4170739;28;20212;-75
2022/11/10 08:26:28;;;;;;;7.13;1.85;;;21.00;99.90;;;;;;4174595;28;20231;-75
2022/11/10 08:28:30;;;;;;;6.55;2.40;;;21.00;99.90;;;;;;4171241;28;20224;-75
2022/11/10 08:30:34;;;;;;;6.40;2.13;;;21.10;99.90;;;;;;4173009;28;20262;-75
2022/11/10 08:32:36;;;;;;;7.90;2.45;;;21.10;99.90;;;;;;4167180;28;20238;-75
2022/11/10 08:34:38;;;;;;;5.28;2.08;;;21.10;99.90;;;;;;4168931;28;20277;-77
2022/11/10 08:36:43;;;;;;;4.55;1.90;;;21.10;99.90;;;;;;4167758;28;20366;-76
2022/11/10 08:38:45;;;;;;;8.38;2.42;;;21.10;99.90;;;;;;4163966;28;20208;-77
2022/11/10 08:40:48;;;;;;;6.78;2.30;;;21.10;99.90;;;;;;4164317;28;20274;-78
2022/11/10 08:42:58;;;;;;;10.20;2.72;;;21.10;99.90;;;;;;4167837;28;20326;-78
2022/11/10 08:45:00;;;;;;;7.00;2.17;;;21.20;99.90;;;;;;4168927;28;20224;-76
2022/11/10 08:47:02;;;;;;;13.15;2.45;;;21.20;99.90;;;;;;4169836;28;20524;-77
2022/11/10 08:49:05;;;;;;;6.22;2.30;;;21.20;99.90;;;;;;4168484;28;20704;-69
2022/11/10 08:51:07;;;;;;;4.53;1.95;;;21.20;99.90;;;;;;4170705;28;20215;-70
2022/11/10 08:53:13;;;;;;;5.75;2.20;;;21.30;99.90;;;;;;4172649;28;20732;-70
2022/11/10 08:55:15;;;;;;;7.07;2.17;;;21.40;99.90;;;;;;4170947;28;20220;-70
2022/11/10 08:57:18;;;;;;;5.05;2.03;;;21.30;99.90;;;;;;4165946;28;20334;-70
2022/11/10 08:59:21;;;;;;;5.43;2.20;;;21.40;99.90;;;;;;4167089;28;20200;-70
2022/11/10 09:01:23;;;;;;;7.28;2.25;;;21.40;99.90;;;;;;4165322;28;20277;-70
2022/11/10 09:03:26;;;;;;;7.40;2.45;;;21.50;99.90;;;;;;4168525;28;20227;-70
2022/11/10 09:05:28;;;;;;;7.60;2.42;;;21.50;99.90;;;;;;4169654;28;20211;-70
2022/11/10 09:07:31;;;;;;;8.35;2.72;;;21.50;99.90;;;;;;4171818;28;20998;-70
2022/11/10 09:09:34;;;;;;;8.02;2.50;;;21.50;99.90;;;;;;4171602;28;20285;-70
2022/11/10 09:11:37;;;;;;;4.45;2.05;;;21.50;99.90;;;;;;4172451;28;20211;-70
2022/11/10 09:13:39;;;;;;;6.55;2.53;;;21.50;99.90;;;;;;4169512;28;20212;-70
2022/11/10 09:15:43;;;;;;;8.73;2.60;;;21.50;99.90;;;;;;4170730;28;20216;-71
2022/11/10 09:17:45;;;;;;;10.20;2.63;;;21.50;99.90;;;;;;4171435;28;20223;-70
2022/11/10 09:19:47;;;;;;;7.10;2.22;;;21.50;99.90;;;;;;4169969;28;20216;-69
2022/11/10 09:21:50;;;;;;;6.07;2.30;;;21.50;99.90;;;;;;4168093;28;20239;-69
2022/11/10 09:23:52;;;;;;;6.28;2.58;;;21.50;99.90;;;;;;4169450;28;20274;-70
2022/11/10 09:25:56;;;;;;;9.98;3.33;;;21.60;99.90;;;;;;4170838;28;20258;-69
2022/11/10 09:27:59;;;;;;;6.78;2.70;;;21.50;99.90;;;;;;4168526;28;20273;-70
2022/11/10 09:30:01;;;;;;;12.77;2.85;;;21.60;99.90;;;;;;4165618;28;20269;-72
2022/11/10 09:32:04;;;;;;;10.77;3.13;;;21.70;99.90;;;;;;4170604;28;20248;-71
2022/11/10 09:34:06;;;;;;;8.00;2.90;;;21.80;99.90;;;;;;4170373;28;20558;-72
2022/11/10 09:36:08;;;;;;;9.93;2.45;;;21.90;99.90;;;;;;4173488;28;20216;-72
2022/11/10 09:38:11;;;;;;;9.98;2.85;;;21.80;99.90;;;;;;4172009;28;21040;-71
2022/11/10 09:40:20;;;;;;;9.75;2.90;;;21.80;99.90;;;;;;4169563;28;20618;-72
2022/11/10 09:42:33;;;;;;;7.60;2.55;;;21.70;99.90;;;;;;4171330;28;20231;-72
2022/11/10 09:44:42;;;;;;;8.68;2.28;;;21.80;99.90;;;;;;4170454;28;20220;-73
2022/11/10 09:46:49;;;;;;;10.23;2.90;;;21.70;99.90;;;;;;4169251;28;20207;-73
2022/11/10 09:48:56;;;;;;;8.98;2.80;;;21.80;99.90;;;;;;4169187;28;20627;-72
2022/11/10 09:51:02;;;;;;;7.75;2.28;;;21.80;99.90;;;;;;4166937;28;20281;-73
2022/11/10 09:53:11;;;;;;;10.00;2.70;;;21.80;99.90;;;;;;4175079;28;20220;-72
2022/11/10 09:55:42;;;;;;;6.55;2.38;;;21.80;99.90;;;;;;4172138;28;20258;-76
2022/11/10 09:57:47;;;;;;;9.30;2.67;;;21.80;99.90;;;;;;4175494;28;20240;-77
2022/11/10 09:59:49;;;;;;;8.07;3.05;;;21.80;99.90;;;;;;4175615;28;20933;-77
2022/11/10 10:01:59;;;;;;;7.97;3.30;;;21.80;99.90;;;;;;4179070;28;20239;-78
2022/11/10 10:04:13;;;;;;;11.27;3.15;;;21.80;99.90;;;;;;4176796;28;20219;-74
2022/11/10 10:06:17;;;;;;;8.02;2.30;;;21.90;99.90;;;;;;4171640;28;20217;-74
2022/11/10 10:08:28;;;;;;;9.50;2.67;;;21.80;99.90;;;;;;4172053;28;20220;-78
2022/11/10 10:10:38;;;;;;;8.13;2.40;;;21.80;99.90;;;;;;4174770;28;20212;-82
2022/11/10 10:13:00;;;;;;;9.32;2.63;;;21.80;99.90;;;;;;4180230;28;20659;-76
2022/11/10 10:15:18;;;;;;;10.93;2.67;;;21.90;99.90;;;;;;4173208;28;20234;-77
2022/11/10 10:17:27;;;;;;;7.82;2.58;;;21.90;99.90;;;;;;4175333;28;20223;-78
2022/11/10 10:19:39;;;;;;;7.70;2.75;;;21.90;99.90;;;;;;4183767;28;20232;-76
2022/11/10 10:21:53;;;;;;;7.45;2.42;;;21.90;99.90;;;;;;4175321;28;20211;-76
2022/11/10 10:23:58;;;;;;;6.47;2.15;;;21.90;99.90;;;;;;4175834;28;20207;-78
2022/11/10 10:26:01;;;;;;;7.10;2.55;;;21.90;99.90;;;;;;4171713;28;20220;-77
2022/11/10 10:28:12;;;;;;;5.47;2.25;;;21.90;99.90;;;;;;4170352;28;20219;-75
2022/11/10 10:30:17;;;;;;;10.73;2.15;;;21.90;99.90;;;;;;4173230;28;20351;-74
2022/11/10 10:32:21;;;;;;;8.02;2.58;;;22.00;99.90;;;;;;4178082;28;20224;-76
2022/11/10 10:34:28;;;;;;;5.88;2.67;;;21.90;99.90;;;;;;4177557;28;20224;-77
2022/11/10 10:36:32;;;;;;;9.57;3.08;;;22.00;99.90;;;;;;4167860;28;20321;-78
2022/11/10 10:38:39;;;;;;;8.50;2.40;;;22.00;99.90;;;;;;4171496;28;20714;-76
2022/11/10 10:40:44;;;;;;;5.43;2.20;;;22.10;99.90;;;;;;4172960;28;20215;-77
2022/11/10 10:42:46;;;;;;;3.85;2.10;;;22.10;99.90;;;;;;4174240;28;20378;-78
2022/11/10 10:45:29;;;;;;;5.25;2.30;;;22.20;99.90;;;;;;4174855;28;20293;-78
2022/11/10 10:47:38;;;;;;;9.75;2.70;;;22.30;99.90;;;;;;4169500;28;20215;-76
2022/11/10 10:49:40;;;;;;;6.30;2.60;;;22.30;99.90;;;;;;4172329;28;20220;-78
2022/11/10 10:51:43;;;;;;;7.40;2.55;;;22.20;99.90;;;;;;4174690;28;20271;-76
2022/11/10 10:53:46;;;;;;;7.05;2.40;;;22.20;99.90;;;;;;4176310;28;20216;-74
2022/11/10 10:55:58;;;;;;;7.32;2.47;;;22.20;99.90;;;;;;4179139;28;20317;-75
2022/11/10 10:58:03;;;;;;;7.18;2.20;;;22.20;99.90;;;;;;4173164;28;20247;-73
2022/11/10 11:00:19;;;;;;;4.22;2.20;;;22.20;99.90;;;;;;4179417;28;20235;-75